Tiempo atmosférico en la estación meteorológica de Arcos de Jalón, Soria (863 m.)

Fecha
DESCASC
Temp. máxima en grados centígrados (hora)
DESCASC
Temp. mínima en grados centígrados (hora)
DESCASC
Temp. media en grados centígrados
DESCASC
Racha de viento máxima en m/sg (hora)
DESCASC
Velocidad máxima media en intervalos de 10 minutos(hora)
DESCASC
Precipitaciones diarias en mm
DESCASC
Precipitaciones de 00:00 a 06:00 en mm
DESCASC
Precipitaciones de 06:00 a 12:00 en mm
DESCASC
Precipitaciones de 12:00 a 18:00 en mm
DESCASC
Precipitaciones de 18:00 a 24:00 en mm
DESCASC
17-08-2017 36.7 (18:10) 15 (07:40) 25.9 8.33 (20:50) 5.28 (20:50) 0 0 0 0 0
16-08-2017 34.3 (16:40) 15.8 (07:10) 25 9.17 (20:40) 5.83 (20:40) 0 0 0 0 0
15-08-2017 34.5 (16:00) 15.9 (00:00) 25.2 13.06 (14:20) 8.33 (15:30) 0 0 0 0 0
14-08-2017 35 (17:20) 15.7 (07:40) 25.3 10.83 (21:30) 6.11 (16:40) 0 0 0 0 0
13-08-2017 33.7 (17:20) 11.8 (00:00) 22.8 9.17 (17:30) 5.56 (19:00) 0 0 0 0 0
12-08-2017 30.6 (18:00) 9 (00:00) 19.8 8.33 (19:50) 4.72 (19:50) 0 0 0 0 0
11-08-2017 27.1 (18:20) 7.3 (00:00) 17.2 8.89 (20:10) 5.28 (20:10) 0 0 0 0 0
10-08-2017 23 (16:10) 5.1 (00:00) 14 9.17 (12:30) 5.56 (12:30) 0 0 0 0 0
09-08-2017 19.2 (16:20) 9.1 (00:00) 14.2 10.83 (17:50) 6.67 (18:00) 0 0 0 0 0
08-08-2017 25.5 (17:50) 15.4 (00:00) 20.4 8.89 (02:20) 6.94 (02:20) 0 0 0 0 0
07-08-2017 34.8 (17:30) 15.1 (00:00) 24.9 15.56 (14:30) 10.28 (14:30) 0 0 0 0 0
06-08-2017 28.4 (16:40) 15.9 (00:00) 22.1 10.83 (16:20) 6.67 (15:10) 0 0 0 0 0
05-08-2017 36.3 (15:50) 19.7 (00:00) 28 12.22 (18:50) 7.5 (18:50) 0 0 0 0 0
04-08-2017 36.4 (18:10) 18.6 (00:00) 27.5 14.72 (17:40) 4.72 (15:00) 0 0 0 0 0
03-08-2017 36.8 (17:30) 18.7 (00:00) 27.8 9.17 (00:50) 6.39 (00:40) 0 0 0 0 0
02-08-2017 35 (17:10) 16.5 (00:00) 25.8 10.83 (16:50) 6.94 (18:10) 0 0 0 0 0
01-08-2017 33.1 (18:40) 15.9 (00:00) 24.5 12.78 (19:00) 6.67 (19:00) 0 0 0 0 0
31-07-2017 34.8 (17:00) 15.8 (00:00) 25.3 17.78 (15:10) 9.17 (14:30) 0 0 0 0 0
30-07-2017 35.6 (15:50) 17.8 (00:00) 26.7 16.11 (15:00) 10.28 (15:30) 0 0 0 0 0
29-07-2017 36.2 (17:20) 16.6 (00:00) 26.4 14.72 (20:00) 8.61 (14:50) 0 0 0 0 0
28-07-2017 36.3 (18:00) 16.1 (00:00) 26.2 12.5 (15:40) 8.61 (15:40) 0 0 0 0 0
27-07-2017 35.6 (16:50) 14.7 (00:00) 25.1 11.11 (14:30) 7.22 (16:20) 0 0 0 0 0
26-07-2017 31.5 (18:50) 10.1 (00:00) 20.8 8.89 (18:40) 4.17 (18:40) 0 0 0 0 0
25-07-2017 25.7 (18:10) 10.8 (00:00) 18.3 9.17 (17:40) 5 (20:20) 0 0 0 0 0
24-07-2017 28.6 (17:00) 13 (00:00) 20.8 11.11 (16:40) 5.83 (20:10) 0 0 0 0 0
23-07-2017 33 (16:30) 13.2 (00:00) 23.1 11.11 (17:10) 6.39 (17:10) 0 0 0 0 0
22-07-2017 31.9 (17:00) 14.6 (00:00) 23.3 14.72 (18:10) 8.89 (18:20) 0 0 0 0 0
21-07-2017 31 (16:30) 14.6 (00:00) 22.8 13.61 (15:40) 8.33 (13:40) 0 0 0 0 0
20-07-2017 29.8 (17:30) 13.5 (00:00) 21.6 10 (20:10) 6.11 (20:10) 0 0 0 0 0
19-07-2017 32.5 (16:30) 20 (00:00) 26.3 13.33 (18:20) 8.61 (19:10) 0 0 0 0 0

Gráficas

Temp. máximas Temp. mínimas Temp. medias Precipitaciones Rachas de viento máximas Velocidades máximas media en intervalos de 10 minutos

Datos horarios

Fecha y hora oficial Temperatura (ºC) Velocidad del viento (km/h) Dirección del viento Racha (km/h) Dirección de racha Precipitación (mm) Presión (hPa) Tendencia (hPa) Humedad (%)
2017-08-17 23:00:00 27.3 5 Nordeste 18 Nordeste 0 -- -- 33
2017-08-17 22:00:00 28.8 8 Norte 23 Nordeste 0 -- -- 30
2017-08-17 21:00:00 30.9 17 Nordeste 30 Nordeste 0 -- -- 27
2017-08-17 20:00:00 34.3 15 Nordeste 24 Nordeste 0 -- -- 24
2017-08-17 19:00:00 35.8 12 Sur 20 Sudoeste 0 -- -- 21
2017-08-17 18:00:00 36.5 9 Oeste 25 Sudoeste 0 -- -- 21
2017-08-17 17:00:00 35.2 5 Nordeste 18 Sudeste 0 -- -- 24
2017-08-17 16:00:00 34.3 11 Este 21 Nordeste 0 -- -- 25
2017-08-17 15:00:00 33.4 9 Nordeste 23 Nordeste 0 -- -- 27
2017-08-17 14:00:00 31.8 7 Nordeste 15 Este 0 -- -- 31
2017-08-17 13:00:00 30 6 Noroeste 12 Nordeste 0 -- -- 34
2017-08-17 12:00:00 26.9 6 Este 14 Nordeste 0 -- -- 38
2017-08-17 11:00:00 24.7 9 Nordeste 14 Nordeste 0 -- -- 41
2017-08-17 10:00:00 22.4 5 Este 8 Nordeste 0 -- -- 50
2017-08-17 09:00:00 18.4 0 Calma 5 Sudoeste 0 -- -- 63
2017-08-17 08:00:00 15.2 4 Sudoeste 12 Sudoeste 0 -- -- 72
2017-08-17 07:00:00 15.1 8 Sudoeste 12 Sudoeste 0 -- -- 71
2017-08-17 06:00:00 15.7 0 Calma 7 Sudoeste 0 -- -- 68
2017-08-17 05:00:00 16 4 Sudoeste 10 Sudoeste 0 -- -- 67
2017-08-17 04:00:00 16.9 5 Sudoeste 9 Sudoeste 0 -- -- 65
2017-08-17 03:00:00 17.7 4 Sudoeste 9 Sudoeste 0 -- -- 61
2017-08-17 02:00:00 19.1 0 Calma 4 Sudoeste 0 -- -- 57
2017-08-17 01:00:00 21 2 Sudeste 16 Noroeste 0 -- -- 53
2017-08-17 00:00:00 21.9 12 Noroeste 18 Noroeste 0 -- -- 51
2017-08-16 23:00:00 24.6 6 Nordeste 16 Nordeste 0 -- -- 46
2017-08-16 22:00:00 25.8 12 Nordeste 26 Este 0 -- -- 43
2017-08-16 21:00:00 27.7 17 Nordeste 33 Nordeste 0 -- -- 41
2017-08-16 20:00:00 31.3 11 Noroeste 24 Noroeste 0 -- -- 26
2017-08-16 19:00:00 32.5 14 Oeste 28 Oeste 0 -- -- 23
2017-08-16 18:00:00 33.1 14 Noroeste 26 Noroeste 0 -- -- 22
2017-08-16 17:00:00 33.9 7 Noroeste 24 Noroeste 0 -- -- 20
2017-08-16 16:00:00 33.4 13 Oeste 31 Oeste 0 -- -- 21
2017-08-16 15:00:00 32.6 17 Sudoeste 33 Sudoeste 0 -- -- 22
2017-08-16 14:00:00 31.1 10 Oeste 21 Sudoeste 0 -- -- 25
2017-08-16 13:00:00 28.7 4 Norte 13 Nordeste 0 -- -- 31
2017-08-16 12:00:00 26.4 6 Nordeste 13 Nordeste 0 -- -- 39
2017-08-16 11:00:00 24.3 6 Este 11 Nordeste 0 -- -- 55
2017-08-16 10:00:00 22.4 3 Nordeste 10 Oeste 0 -- -- 62
2017-08-16 09:00:00 18.3 9 Oeste 13 Sudoeste 0 -- -- 72
2017-08-16 08:00:00 16.2 10 Sudoeste 14 Sudoeste 0 -- -- 78
2017-08-16 07:00:00 15.9 8 Sudoeste 13 Sudoeste 0 -- -- 78
2017-08-16 06:00:00 16.7 5 Sudoeste 11 Sudoeste 0 -- -- 74
2017-08-16 05:00:00 17.7 6 Sudoeste 11 Sudoeste 0 -- -- 70
2017-08-16 04:00:00 18.6 6 Oeste 13 Sur 0 -- -- 67
2017-08-16 03:00:00 19.2 4 Sudoeste 10 Sur 0 -- -- 60
2017-08-16 02:00:00 20 2 Sudoeste 4 Sudoeste 0 -- -- 58
2017-08-16 01:00:00 21.1 2 Sudoeste 8 Sudoeste 0 -- -- 50
2017-08-16 00:00:00 23.4 0 Calma 7 Norte 0 -- -- 44
2017-08-15 23:00:00 25.3 0 Calma 9 Nordeste 0 -- -- 39
2017-08-15 22:00:00 26.7 4 Norte 15 Oeste 0 -- -- 32
2017-08-15 21:00:00 29.3 5 Oeste 17 Oeste 0 -- -- 28
2017-08-15 20:00:00 32.3 7 Oeste 27 Sudoeste 0 -- -- 24
2017-08-15 19:00:00 33.1 19 Sudoeste 33 Sudoeste 0 -- -- 22
2017-08-15 18:00:00 33.9 19 Sudoeste 39 Sudoeste 0 -- -- 22
2017-08-15 17:00:00 32.8 27 Sudoeste 44 Sudoeste 0 -- -- 23
2017-08-15 16:00:00 34.5 22 Sudoeste 47 Sudoeste 0 -- -- 23
2017-08-15 15:00:00 33.9 25 Sudoeste 47 Sudoeste 0 -- -- 24
2017-08-15 14:00:00 33 23 Sudoeste 39 Sudoeste 0 -- -- 27
2017-08-15 13:00:00 32.2 20 Sur 35 Sudoeste 0 -- -- 30
2017-08-15 12:00:00 30.5 13 Sur 26 Sudeste 0 -- -- 33
2017-08-15 11:00:00 26.7 8 Sudoeste 17 Sur 0 -- -- 38
2017-08-15 10:00:00 21.3 4 Nordeste 9 Nordeste 0 -- -- 50
2017-08-15 09:00:00 18.5 3 Este 12 Sudoeste 0 -- -- 56
2017-08-15 08:00:00 16.1 6 Sudoeste 14 Sudoeste 0 -- -- 65
2017-08-15 07:00:00 16 9 Sudoeste 13 Sudoeste 0 -- -- 63
2017-08-15 06:00:00 16.6 8 Sudoeste 13 Sudoeste 0 -- -- 60
2017-08-15 05:00:00 17.4 10 Sudoeste 13 Sudoeste 0 -- -- 57
2017-08-15 04:00:00 18.2 10 Sudoeste 13 Sudoeste 0 -- -- 53
2017-08-15 03:00:00 19.4 7 Sudoeste 15 Oeste 0 -- -- 48
2017-08-15 02:00:00 20.7 8 Sudoeste 17 Sudoeste 0 -- -- 44
2017-08-15 01:00:00 21.9 14 Oeste 18 Sudoeste 0 -- -- 42
2017-08-15 00:00:00 23.5 7 Sudoeste 21 Sudoeste 0 -- -- 37
2017-08-14 23:00:00 25 13 Oeste 24 Oeste 0 -- -- 33
2017-08-14 22:00:00 27.1 19 Oeste 39 Oeste 0 -- -- 31
2017-08-14 21:00:00 30 9 Sudoeste 27 Sudoeste 0 -- -- 23
2017-08-14 20:00:00 32.9 19 Sur 32 Sudoeste 0 -- -- 20
2017-08-14 19:00:00 33.9 12 Sudeste 36 Sudoeste 0 -- -- 19
2017-08-14 18:00:00 34.4 14 Sur 35 Sur 0 -- -- 19
2017-08-14 17:00:00 34.8 14 Sur 32 Sudoeste 0 -- -- 19
2017-08-14 16:00:00 34.6 15 Sudoeste 33 Sur 0 -- -- 19
2017-08-14 15:00:00 33.9 8 Sudoeste 28 Sur 0 -- -- 20
2017-08-14 14:00:00 33.3 8 Sudoeste 28 Sur 0 -- -- 21
2017-08-14 13:00:00 31.4 7 Sudeste 18 Sur 0 -- -- 24
2017-08-14 12:00:00 28.4 9 Nordeste 17 Nordeste 0 -- -- 36
2017-08-14 11:00:00 25.3 8 Nordeste 14 Nordeste 0 -- -- 43
2017-08-14 10:00:00 22.3 8 Nordeste 12 Este 0 -- -- 50
2017-08-14 09:00:00 19.9 4 Nordeste 7 Nordeste 0 -- -- 55
2017-08-14 08:00:00 15.8 3 Sudoeste 6 Sudoeste 0 -- -- 66
2017-08-14 07:00:00 16.5 0 Calma 9 Sur 0 -- -- 60
2017-08-14 06:00:00 18.2 5 Sur 16 Sudoeste 0 -- -- 56
2017-08-14 05:00:00 17.1 0 Calma 4 Nordeste 0 -- -- 54
2017-08-14 04:00:00 17.8 0 Calma 6 Sudeste 0 -- -- 52
2017-08-14 03:00:00 19.2 4 Noroeste 16 Sudoeste 0 -- -- 47
2017-08-14 02:00:00 19.2 6 Sudoeste 13 Sudoeste 0 -- -- 46
2017-08-14 01:00:00 20.1 9 Sur 13 Sur 0 -- -- 43
2017-08-14 00:00:00 23.5 0 Calma 15 Norte 0 -- -- 37
2017-08-13 23:00:00 25.8 9 Norte 15 Nordeste 0 -- -- 34
2017-08-13 22:00:00 26.8 9 Norte 23 Nordeste 0 -- -- 32
2017-08-13 21:00:00 28.7 14 Nordeste 29 Nordeste 0 -- -- 29
2017-08-13 20:00:00 31 12 Nordeste 24 Sudoeste 0 -- -- 26
2017-08-13 19:00:00 32.1 20 Sudoeste 30 Sudoeste 0 -- -- 19
2017-08-13 18:00:00 33.4 15 Sudoeste 33 Sudoeste 0 -- -- 19
2017-08-13 17:00:00 33.4 11 Sudoeste 31 Sudoeste 0 -- -- 19
2017-08-13 16:00:00 33.3 12 Sur 29 Sudoeste 0 -- -- 20
2017-08-13 15:00:00 32.5 19 Sudoeste 31 Sudoeste 0 -- -- 21
2017-08-13 14:00:00 29.9 9 Nordeste 19 Norte 0 -- -- 28
2017-08-13 13:00:00 27.6 8 Nordeste 18 Nordeste 0 -- -- 32
2017-08-13 12:00:00 25.2 9 Nordeste 16 Nordeste 0 -- -- 36
2017-08-13 11:00:00 22.9 8 Nordeste 14 Este 0 -- -- 37
2017-08-13 10:00:00 20.8 6 Nordeste 10 Nordeste 0 -- -- 41
2017-08-13 09:00:00 17.2 0 Calma 10 Sudoeste 0 -- -- 47
2017-08-13 08:00:00 12.2 6 Sudoeste 12 Sudoeste 0 -- -- 58
2017-08-13 07:00:00 12.3 9 Sudoeste 13 Sudoeste 0 -- -- 57
2017-08-13 06:00:00 12.5 8 Sudoeste 12 Sudoeste 0 -- -- 56
2017-08-13 05:00:00 13 8 Sudoeste 10 Sudoeste 0 -- -- 54
2017-08-13 04:00:00 13.4 5 Sudoeste 11 Sudoeste 0 -- -- 52
2017-08-13 03:00:00 14.1 5 Sudoeste 7 Sur 0 -- -- 50
2017-08-13 02:00:00 14.8 3 Sudoeste 5 Sur 0 -- -- 44
2017-08-13 01:00:00 16.2 2 Sur 4 Este 0 -- -- 41
2017-08-13 00:00:00 19.1 0 Calma 8 Norte 0 -- -- 36
2017-08-12 23:00:00 21.8 5 Nordeste 17 Nordeste 0 -- -- 33
2017-08-12 22:00:00 23.8 12 Nordeste 23 Nordeste 0 -- -- 28
2017-08-12 21:00:00 26.1 13 Nordeste 29 Nordeste 0 -- -- 24
2017-08-12 20:00:00 28.6 16 Nordeste 30 Norte 0 -- -- 23
2017-08-12 19:00:00 29.9 3 Este 18 Nordeste 0 -- -- 19
2017-08-12 18:00:00 30.6 4 Oeste 16 Nordeste 0 -- -- 18
2017-08-12 17:00:00 29.4 8 Este 24 Nordeste 0 -- -- 19
2017-08-12 16:00:00 28.8 10 Nordeste 22 Este 0 -- -- 21
2017-08-12 15:00:00 28 11 Este 19 Nordeste 0 -- -- 23
2017-08-12 14:00:00 26.9 8 Nordeste 21 Nordeste 0 -- -- 24
2017-08-12 13:00:00 25.3 8 Norte 16 Nordeste 0 -- -- 27
2017-08-12 12:00:00 23 8 Nordeste 13 Nordeste 0 -- -- 32
2017-08-12 11:00:00 20.4 6 Nordeste 13 Este 0 -- -- 37
2017-08-12 10:00:00 17.9 6 Nordeste 10 Nordeste 0 -- -- 42
2017-08-12 09:00:00 14.1 5 Sudoeste 13 Sudoeste 0 -- -- 49
2017-08-12 08:00:00 10.5 9 Sudoeste 16 Sudoeste 0 -- -- 58
2017-08-12 07:00:00 9.2 6 Sudoeste 15 Sudoeste 0 -- -- 63
2017-08-12 06:00:00 10 3 Nordeste 9 Sur 0 -- -- 63
2017-08-12 05:00:00 11 6 Sudoeste 15 Sudoeste 0 -- -- 60
2017-08-12 04:00:00 10.9 10 Sudoeste 12 Sudoeste 0 -- -- 63
2017-08-12 03:00:00 12.6 8 Oeste 10 Oeste 0 -- -- 58
2017-08-12 02:00:00 14 3 Sur 18 Noroeste 0 -- -- 56
2017-08-12 01:00:00 15 7 Noroeste 19 Noroeste 0 -- -- 54
2017-08-12 00:00:00 15.8 11 Noroeste 21 Oeste 0 -- -- 53
2017-08-11 23:00:00 17.7 6 Norte 23 Nordeste 0 -- -- 47
2017-08-11 22:00:00 19.2 11 Norte 23 Norte 0 -- -- 41
2017-08-11 21:00:00 21.2 14 Noroeste 32 Norte 0 -- -- 35
2017-08-11 20:00:00 23.5 18 Norte 32 Norte 0 -- -- 29
2017-08-11 19:00:00 25.9 10 Nordeste 21 Nordeste 0 -- -- 23
2017-08-11 18:00:00 26.8 8 Nordeste 28 Norte 0 -- -- 20
2017-08-11 17:00:00 26.1 9 Norte 23 Noroeste 0 -- -- 20
2017-08-11 16:00:00 25.4 9 Noroeste 24 Noroeste 0 -- -- 21
2017-08-11 15:00:00 24.1 8 Noroeste 19 Norte 0 -- -- 23
2017-08-11 14:00:00 21.8 9 Norte 22 Norte 0 -- -- 30
2017-08-11 13:00:00 20.3 10 Noroeste 21 Noroeste 0 -- -- 31
2017-08-11 12:00:00 18.4 12 Noroeste 22 Norte 0 -- -- 38
2017-08-11 11:00:00 16.2 7 Norte 17 Nordeste 0 -- -- 45
2017-08-11 10:00:00 14.4 9 Norte 20 Noroeste 0 -- -- 52
2017-08-11 09:00:00 11 3 Noroeste 10 Sudoeste 0 -- -- 66
2017-08-11 08:00:00 8.7 6 Sudoeste 14 Sudoeste 0 -- -- 73
2017-08-11 07:00:00 7.9 4 Sudoeste 11 Sudoeste 0 -- -- 75
2017-08-11 06:00:00 7.3 8 Sudoeste 12 Sudoeste 0 -- -- 78
2017-08-11 05:00:00 7.4 8 Sudoeste 10 Sudoeste 0 -- -- 77
2017-08-11 04:00:00 9.4 0 Calma 6 Sudeste 0 -- -- 71
2017-08-11 03:00:00 10.7 2 Norte 7 Norte 0 -- -- 68
2017-08-11 02:00:00 12.1 5 Nordeste 10 Nordeste 0 -- -- 68
2017-08-11 01:00:00 12.9 3 Norte 14 Norte 0 -- -- 66
2017-08-11 00:00:00 14 6 Nordeste 18 Norte 0 -- -- 62
2017-08-10 23:00:00 15.3 6 Norte 22 Norte 0 -- -- 58
2017-08-10 22:00:00 16.6 15 Norte 27 Norte 0 -- -- 53
2017-08-10 21:00:00 18.7 14 Norte 32 Noroeste 0 -- -- 46
2017-08-10 20:00:00 21.7 14 Nordeste 28 Nordeste 0 -- -- 37
2017-08-10 19:00:00 22.6 12 Nordeste 26 Nordeste 0 -- -- 34
2017-08-10 18:00:00 22.6 14 Nordeste 28 Nordeste 0 -- -- 35
2017-08-10 17:00:00 22.8 11 Noroeste 23 Norte 0 -- -- 34
2017-08-10 16:00:00 22.3 13 Norte 29 Nordeste 0 -- -- 35
2017-08-10 15:00:00 21 14 Norte 31 Norte 0 -- -- 37
2017-08-10 14:00:00 20.5 13 Norte 33 Nordeste 0 -- -- 38
2017-08-10 13:00:00 19.3 15 Norte 33 Nordeste 0 -- -- 40
2017-08-10 12:00:00 18.1 11 Norte 24 Norte 0 -- -- 44
2017-08-10 11:00:00 15.7 7 Norte 18 Nordeste 0 -- -- 52
2017-08-10 10:00:00 13.8 6 Norte 14 Norte 0 -- -- 58
2017-08-10 09:00:00 10.6 2 Sudoeste 6 Sudoeste 0 -- -- 66
2017-08-10 08:00:00 6.5 4 Sudoeste 12 Sudoeste 0 -- -- 77
2017-08-10 07:00:00 5.2 0 Calma 7 Sudoeste 0 -- -- 78
2017-08-10 06:00:00 5.8 4 Sudoeste 10 Sudoeste 0 -- -- 76
2017-08-10 05:00:00 6.3 6 Sudoeste 10 Oeste 0 -- -- 75
2017-08-10 04:00:00 6.9 3 Sudoeste 6 Oeste 0 -- -- 74
2017-08-10 03:00:00 8.5 0 Calma 4 Sudoeste 0 -- -- 68
2017-08-10 02:00:00 10.6 0 Calma 11 Norte 0 -- -- 63
2017-08-10 01:00:00 11.6 7 Norte 20 Norte 0 -- -- 60
2017-08-10 00:00:00 12.3 13 Norte 30 Norte 0 -- -- 56
2017-08-09 23:00:00 13.6 18 Norte 29 Norte 0 -- -- 53
2017-08-09 22:00:00 14.9 17 Norte 27 Norte 0 -- -- 49
2017-08-09 21:00:00 16.3 18 Norte 32 Norte 0 -- -- 48
2017-08-09 20:00:00 17.6 18 Norte 35 Norte 0 -- -- 47
2017-08-09 19:00:00 17.1 18 Norte 39 Norte 0 -- -- 50
2017-08-09 18:00:00 17.9 24 Norte 39 Noroeste 0 -- -- 49
2017-08-09 17:00:00 19.1 14 Nordeste 27 Nordeste 0 -- -- 49
2017-08-09 16:00:00 18.6 14 Nordeste 28 Nordeste 0 -- -- 52
2017-08-09 15:00:00 17.8 13 Norte 25 Nordeste 0 -- -- 54
2017-08-09 14:00:00 17.8 16 Norte 28 Norte 0 -- -- 54
2017-08-09 13:00:00 17.6 14 Norte 23 Nordeste 0 -- -- 54
2017-08-09 12:00:00 17 14 Nordeste 23 Nordeste 0 -- -- 55
2017-08-09 11:00:00 16.7 10 Nordeste 21 Nordeste 0 -- -- 56
2017-08-09 10:00:00 14.8 10 Nordeste 17 Nordeste 0 -- -- 62
2017-08-09 09:00:00 12.4 3 Nordeste 6 Nordeste 0 -- -- 71
2017-08-09 08:00:00 10.6 2 Sur 4 Este 0 -- -- 75
2017-08-09 07:00:00 9.1 0 Calma 5 Sudeste 0 -- -- 77
2017-08-09 06:00:00 9.4 0 Calma 4 Sur 0 -- -- 76
2017-08-09 05:00:00 10 0 Calma 3 Sur 0 -- -- 73
2017-08-09 04:00:00 10.9 0 Calma 3 Sur 0 -- -- 70
2017-08-09 03:00:00 11.8 0 Calma 4 Sur 0 -- -- 68
2017-08-09 02:00:00 13 0 Calma 3 Nordeste 0 -- -- 63
2017-08-09 01:00:00 14.4 0 Calma 13 Noroeste 0 -- -- 61
2017-08-09 00:00:00 15.4 8 Noroeste 18 Norte 0 -- -- 59
2017-08-08 23:00:00 16.3 10 Norte 30 Noroeste 0 -- -- 56
2017-08-08 22:00:00 17.8 16 Noroeste 30 Noroeste 0 -- -- 50
2017-08-08 21:00:00 21 12 Noroeste 27 Norte 0 -- -- 38
2017-08-08 20:00:00 23.3 12 Norte 22 Norte 0 -- -- 34
2017-08-08 19:00:00 24.6 12 Norte 24 Norte 0 -- -- 32
2017-08-08 18:00:00 25.4 12 Noroeste 23 Norte 0 -- -- 31
2017-08-08 17:00:00 24.6 6 Nordeste 18 Norte 0 -- -- 33
2017-08-08 16:00:00 24.1 3 Sudeste 23 Nordeste 0 -- -- 34
2017-08-08 15:00:00 24.1 9 Norte 23 Nordeste 0 -- -- 34
2017-08-08 14:00:00 22.9 7 Noroeste 23 Norte 0 -- -- 38
2017-08-08 13:00:00 21.1 8 Noroeste 24 Nordeste 0 -- -- 46
2017-08-08 12:00:00 19.9 12 Norte 27 Norte 0 -- -- 50
2017-08-08 11:00:00 19.3 10 Norte 25 Norte 0 -- -- 55
2017-08-08 10:00:00 17.9 15 Noroeste 24 Norte 0 -- -- 59
2017-08-08 09:00:00 16.6 12 Noroeste 20 Norte 0 -- -- 66
2017-08-08 08:00:00 16 10 Noroeste 23 Norte 0 -- -- 72
2017-08-08 07:00:00 16.2 11 Noroeste 19 Noroeste 0 -- -- 73
2017-08-08 06:00:00 16.4 5 Noroeste 14 Oeste 0 -- -- 50
2017-08-08 05:00:00 18.4 8 Noroeste 22 Noroeste 0 -- -- 38
2017-08-08 04:00:00 19.7 10 Sudoeste 30 Sudoeste 0 -- -- 38
2017-08-08 03:00:00 21.6 21 Sudoeste 32 Sudoeste 0 -- -- 29
2017-08-08 02:00:00 22.7 22 Sudoeste 31 Sudoeste 0 -- -- 28
2017-08-08 01:00:00 23 12 Sudoeste 19 Sudoeste 0 -- -- 28
2017-08-08 00:00:00 23.5 2 Sudoeste 11 Oeste 0 -- -- 27
2017-08-07 23:00:00 25 8 Sudoeste 14 Oeste 0 -- -- 25
2017-08-07 22:00:00 27.1 12 Oeste 21 Sur 0 -- -- 19
2017-08-07 21:00:00 30.3 15 Sudoeste 37 Sudoeste 0 -- -- 12
2017-08-07 20:00:00 32.2 22 Sudoeste 43 Sudoeste 0 -- -- 12
2017-08-07 19:00:00 33.2 29 Sudoeste 51 Sur 0 -- -- 11
2017-08-07 18:00:00 33.4 28 Sudoeste 55 Sudoeste 0 -- -- 12
2017-08-07 17:00:00 34.3 35 Sudoeste 51 Sudoeste 0 -- -- 13
2017-08-07 16:00:00 34.1 29 Sudoeste 51 Sudoeste 0 -- -- 15
2017-08-07 15:00:00 34.1 33 Sudoeste 56 Sudoeste 0 -- -- 14
2017-08-07 14:00:00 32.8 28 Sudoeste 50 Sudoeste 0 -- -- 18
2017-08-07 13:00:00 31.3 30 Sudoeste 42 Sudoeste 0 -- -- 29
2017-08-07 12:00:00 29.7 23 Sur 36 Sur 0 -- -- 34
2017-08-07 11:00:00 27.4 19 Sudoeste 29 Sur 0 -- -- 47
2017-08-07 10:00:00 23.5 4 Nordeste 8 Nordeste 0 -- -- 56
2017-08-07 09:00:00 19.8 0 Calma 10 Sudoeste 0 -- -- 64
2017-08-07 08:00:00 16.1 6 Sudoeste 13 Sudoeste 0 -- -- 74
2017-08-07 07:00:00 15.7 10 Sudoeste 13 Oeste 0 -- -- 74
2017-08-07 06:00:00 15.9 9 Sudoeste 10 Sudoeste 0 -- -- 72
2017-08-07 05:00:00 16.5 6 Sudoeste 10 Sudoeste 0 -- -- 70
2017-08-07 04:00:00 16.8 0 Calma 5 Sur 0 -- -- 66
2017-08-07 03:00:00 17.5 0 Calma 2 Sur 0 -- -- 63
2017-08-07 02:00:00 18.6 0 Calma 3 Sudoeste 0 -- -- 60
2017-08-07 01:00:00 20.3 0 Calma 6 Norte 0 -- -- 56
2017-08-07 00:00:00 21.2 4 Nordeste 10 Nordeste 0 -- -- 54
2017-08-06 23:00:00 22.1 6 Nordeste 17 Nordeste 0 -- -- 52
2017-08-06 22:00:00 23.3 12 Nordeste 26 Nordeste 0 -- -- 48
2017-08-06 21:00:00 24.8 18 Nordeste 32 Nordeste 0 -- -- 45
2017-08-06 20:00:00 26.5 19 Nordeste 36 Este 0 -- -- 41
2017-08-06 19:00:00 27.8 20 Nordeste 35 Nordeste 0 -- -- 39
2017-08-06 18:00:00 28.3 19 Nordeste 39 Nordeste 0 -- -- 38
2017-08-06 17:00:00 28.3 20 Nordeste 39 Nordeste 0 -- -- 37
2017-08-06 16:00:00 27.8 22 Nordeste 37 Nordeste 0 -- -- 38
2017-08-06 15:00:00 27.3 19 Norte 33 Nordeste 0 -- -- 40
2017-08-06 14:00:00 25.5 20 Norte 35 Nordeste 0 -- -- 43
2017-08-06 13:00:00 24.7 15 Nordeste 32 Nordeste 0 -- -- 46
2017-08-06 12:00:00 23 17 Nordeste 34 Nordeste 0 -- -- 49
2017-08-06 11:00:00 21.5 16 Nordeste 26 Nordeste 0 -- -- 54
2017-08-06 10:00:00 20.6 13 Nordeste 23 Este 0 -- -- 57
2017-08-06 09:00:00 18.7 12 Nordeste 21 Nordeste 0 -- -- 64
2017-08-06 08:00:00 16.6 3 Nordeste 12 Norte 0 -- -- 72
2017-08-06 07:00:00 15.9 3 Norte 8 Norte 0 -- -- 74
2017-08-06 06:00:00 16.6 4 Norte 12 Noroeste 0 -- -- 71
2017-08-06 05:00:00 17 8 Noroeste 19 Noroeste 0 -- -- 70
2017-08-06 04:00:00 17.8 12 Noroeste 22 Noroeste 0 -- -- 67
2017-08-06 03:00:00 19.3 9 Nordeste 23 Norte 0 -- -- 67
2017-08-06 02:00:00 20.1 11 Norte 25 Nordeste 0 -- -- 65
2017-08-06 01:00:00 20.7 11 Norte 21 Norte 0 -- -- 64
2017-08-06 00:00:00 21.4 12 Norte 22 Noroeste 0 -- -- 61
2017-08-05 23:00:00 22.5 12 Noroeste 23 Noroeste 0 -- -- 58
2017-08-05 22:00:00 25.9 13 Nordeste 26 Nordeste 0 -- -- 50
2017-08-05 21:00:00 27.9 16 Nordeste 35 Nordeste 0 -- -- 46
2017-08-05 20:00:00 29.5 17 Nordeste 38 Nordeste 0 -- -- 43
2017-08-05 19:00:00 30.2 24 Nordeste 44 Nordeste 0 -- -- 42
2017-08-05 18:00:00 33.2 23 Nordeste 37 Nordeste 0 -- -- 37
2017-08-05 17:00:00 33.6 17 Nordeste 33 Nordeste 0 -- -- 33
2017-08-05 16:00:00 36.2 10 Este 24 Este 0 -- -- 25
2017-08-05 15:00:00 35.8 10 Noroeste 27 Oeste 0 -- -- 25
2017-08-05 14:00:00 33.6 8 Noroeste 18 Este 0 -- -- 31
2017-08-05 13:00:00 32.8 10 Nordeste 21 Nordeste 0 -- -- 34
2017-08-05 12:00:00 31.6 8 Norte 18 Norte 0 -- -- 31
2017-08-05 11:00:00 29.6 7 Norte 17 Norte 0 -- -- 38
2017-08-05 10:00:00 27.3 3 Noroeste 7 Norte 0 -- -- 48
2017-08-05 09:00:00 23.8 5 Sudoeste 13 Oeste 0 -- -- 56
2017-08-05 08:00:00 20.1 10 Sudoeste 14 Sudoeste 0 -- -- 66
2017-08-05 07:00:00 20 12 Sudoeste 16 Oeste 0 -- -- 66
2017-08-05 06:00:00 20.8 10 Sudoeste 18 Oeste 0 -- -- 64
2017-08-05 05:00:00 20.9 4 Sudoeste 22 Sudoeste 0 -- -- 62
2017-08-05 04:00:00 21.3 4 Sur 10 Oeste 0 -- -- 58
2017-08-05 03:00:00 22.1 3 Sudoeste 6 Sudoeste 0 -- -- 55
2017-08-05 02:00:00 23.1 0 Calma 3 Sudoeste 0 -- -- 52
2017-08-05 01:00:00 25.1 0 Calma 8 Nordeste 0 -- -- 48
2017-08-05 00:00:00 28 7 Nordeste 21 Norte 0 -- -- 43
2017-08-04 23:00:00 29 9 Nordeste 23 Nordeste 0 -- -- 40
2017-08-04 22:00:00 30.4 13 Nordeste 23 Nordeste 0 -- -- 37
2017-08-04 21:00:00 32.8 10 Oeste 23 Noroeste 0 -- -- 29
2017-08-04 20:00:00 34.6 12 Oeste 22 Oeste 0 -- -- 28
2017-08-04 19:00:00 36 11 Oeste 22 Sudoeste 0 -- -- 28
2017-08-04 18:00:00 36.3 10 Sudoeste 53 Oeste 0 -- -- 27
2017-08-04 17:00:00 36.2 13 Sudoeste 27 Sudoeste 0 -- -- 26
2017-08-04 16:00:00 35.4 16 Sudoeste 27 Oeste 0 -- -- 27
2017-08-04 15:00:00 34.9 17 Sudoeste 29 Sudoeste 0 -- -- 28
2017-08-04 14:00:00 34.1 8 Sudoeste 21 Sudoeste 0 -- -- 29
2017-08-04 13:00:00 32.6 5 Sudoeste 23 Oeste 0 -- -- 33
2017-08-04 12:00:00 31.1 9 Noroeste 20 Noroeste 0 -- -- 36
2017-08-04 11:00:00 29.1 9 Oeste 18 Oeste 0 -- -- 40
2017-08-04 10:00:00 27.5 4 Nordeste 9 Nordeste 0 -- -- 42
2017-08-04 09:00:00 24.3 0 Calma 6 Sudoeste 0 -- -- 47
2017-08-04 08:00:00 19.7 2 Sudoeste 10 Oeste 0 -- -- 56
2017-08-04 07:00:00 18.9 3 Sudoeste 10 Sudoeste 0 -- -- 56
2017-08-04 06:00:00 19.4 0 Calma 5 Sudoeste 0 -- -- 52
2017-08-04 05:00:00 19.7 4 Sudoeste 10 Sudoeste 0 -- -- 47
2017-08-04 04:00:00 20.1 6 Sudoeste 14 Sudoeste 0 -- -- 45
2017-08-04 03:00:00 21.3 5 Oeste 11 Sudoeste 0 -- -- 38
2017-08-04 02:00:00 23.3 10 Sudoeste 20 Sudoeste 0 -- -- 34
2017-08-04 01:00:00 23.8 11 Sudoeste 17 Sudoeste 0 -- -- 32
2017-08-04 00:00:00 25.1 12 Sudoeste 21 Sudoeste 0 -- -- 29
2017-08-03 23:00:00 26.3 13 Sudoeste 17 Sudoeste 0 -- -- 27
2017-08-03 22:00:00 28.6 12 Sudoeste 15 Oeste 0 -- -- 25
2017-08-03 21:00:00 33.7 9 Sudoeste 20 Sudoeste 0 -- -- 21
2017-08-03 20:00:00 35.4 10 Sudoeste 22 Sudoeste 0 -- -- 18
2017-08-03 19:00:00 36.1 14 Sudoeste 31 Sudoeste 0 -- -- 18
2017-08-03 18:00:00 36.5 7 Oeste 23 Sudoeste 0 -- -- 18
2017-08-03 17:00:00 36.5 17 Sudoeste 28 Sudoeste 0 -- -- 17
2017-08-03 16:00:00 35.6 16 Sudoeste 27 Sudoeste 0 -- -- 18
2017-08-03 15:00:00 34.2 12 Norte 19 Noroeste 0 -- -- 19
2017-08-03 14:00:00 33.2 6 Nordeste 18 Noroeste 0 -- -- 20
2017-08-03 13:00:00 31.9 6 Noroeste 18 Norte 0 -- -- 21
2017-08-03 12:00:00 31 9 Norte 25 Norte 0 -- -- 21
2017-08-03 11:00:00 28.9 6 Noroeste 18 Nordeste 0 -- -- 26
2017-08-03 10:00:00 26.4 2 Oeste 12 Sudoeste 0 -- -- 33
2017-08-03 09:00:00 23 6 Sudoeste 11 Oeste 0 -- -- 50
2017-08-03 08:00:00 19.6 8 Sudoeste 14 Oeste 0 -- -- 69
2017-08-03 07:00:00 19 4 Oeste 15 Sur 0 -- -- 70
2017-08-03 06:00:00 19.6 5 Sur 14 Sudoeste 0 -- -- 69
2017-08-03 05:00:00 20.9 7 Sudoeste 22 Sudoeste 0 -- -- 62
2017-08-03 04:00:00 21.2 10 Sudoeste 27 Oeste 0 -- -- 61
2017-08-03 03:00:00 23.3 17 Oeste 26 Oeste 0 -- -- 54
2017-08-03 02:00:00 23.8 18 Sudoeste 28 Sur 0 -- -- 52
2017-08-03 01:00:00 25.8 17 Sur 33 Sur 0 -- -- 46
2017-08-03 00:00:00 26.4 24 Sur 34 Sur 0 -- -- 45
2017-08-02 23:00:00 24.4 9 Sudoeste 14 Sudoeste 0 -- -- 33
2017-08-02 22:00:00 27.3 8 Sudoeste 17 Sur 0 -- -- 32
2017-08-02 21:00:00 31 10 Sur 23 Sur 0 -- -- 32
2017-08-02 20:00:00 32.2 15 Sur 28 Sur 0 -- -- 29
2017-08-02 19:00:00 32.1 14 Sur 35 Sur 0 -- -- 30
2017-08-02 18:00:00 33.1 19 Sur 33 Sur 0 -- -- 28
2017-08-02 17:00:00 34.5 19 Sudoeste 39 Sur 0 -- -- 25
2017-08-02 16:00:00 33.7 15 Sur 33 Sudoeste 0 -- -- 26
2017-08-02 15:00:00 33.3 15 Sur 29 Sur 0 -- -- 28
2017-08-02 14:00:00 32 15 Sudeste 31 Sudeste 0 -- -- 29
2017-08-02 13:00:00 31.4 15 Sur 26 Nordeste 0 -- -- 32
2017-08-02 12:00:00 29.2 16 Nordeste 32 Nordeste 0 -- -- 37
2017-08-02 11:00:00 27.2 10 Nordeste 17 Nordeste 0 -- -- 43
2017-08-02 10:00:00 24.3 3 Este 9 Oeste 0 -- -- 48
2017-08-02 09:00:00 20.2 5 Sudoeste 14 Sudoeste 0 -- -- 52
2017-08-02 08:00:00 17.4 9 Sudoeste 12 Sudoeste 0 -- -- 61
2017-08-02 07:00:00 16.6 7 Sudoeste 13 Sudoeste 0 -- -- 57
2017-08-02 06:00:00 17.5 7 Sudoeste 14 Oeste 0 -- -- 56
2017-08-02 05:00:00 18.4 11 Sudoeste 15 Sudoeste 0 -- -- 52
2017-08-02 04:00:00 18.5 11 Sudoeste 17 Oeste 0 -- -- 45
2017-08-02 03:00:00 18.5 8 Sudoeste 17 Sudoeste 0 -- -- 42
2017-08-02 02:00:00 18.7 3 Sur 13 Sudoeste 0 -- -- 39
2017-08-02 01:00:00 19.8 11 Sudoeste 15 Oeste 0 -- -- 37
2017-08-02 00:00:00 21.1 8 Sudoeste 12 Sudoeste 0 -- -- 34
2017-08-01 23:00:00 22.7 6 Sudoeste 14 Sudoeste 0 -- -- 31
2017-08-01 22:00:00 24.9 10 Sudoeste 21 Sudoeste 0 -- -- 28
2017-08-01 21:00:00 30.1 11 Sudoeste 26 Sudoeste 0 -- -- 22
2017-08-01 20:00:00 31.6 13 Sudoeste 35 Sudoeste 0 -- -- 20
2017-08-01 19:00:00 32.4 24 Sur 46 Sur 0 -- -- 19
2017-08-01 18:00:00 32.5 15 Sur 32 Sur 0 -- -- 20
2017-08-01 17:00:00 32.7 19 Sur 40 Sur 0 -- -- 20
2017-08-01 16:00:00 32.7 18 Sur 39 Sur 0 -- -- 19
2017-08-01 15:00:00 31.2 18 Sudeste 36 Sur 0 -- -- 20
2017-08-01 14:00:00 31.6 15 Sur 34 Este 0 -- -- 20
2017-08-01 13:00:00 29.9 8 Norte 18 Este 0 -- -- 29
2017-08-01 12:00:00 27.7 6 Nordeste 14 Este 0 -- -- 33
2017-08-01 11:00:00 25.5 6 Nordeste 12 Nordeste 0 -- -- 37
2017-08-01 10:00:00 23.4 4 Nordeste 9 Nordeste 0 -- -- 41
2017-08-01 09:00:00 20.9 0 Calma 13 Sudoeste 0 -- -- 46
2017-08-01 08:00:00 16.7 9 Sudoeste 11 Sudoeste 0 -- -- 56
2017-08-01 07:00:00 16.5 3 Sudoeste 6 Sur 0 -- -- 52
2017-08-01 06:00:00 18 4 Sudoeste 16 Oeste 0 -- -- 48
2017-08-01 05:00:00 18.1 11 Sudoeste 16 Oeste 0 -- -- 44
2017-08-01 04:00:00 18.9 13 Oeste 17 Oeste 0 -- -- 38
2017-08-01 03:00:00 20.2 4 Noroeste 19 Sudoeste 0 -- -- 32
2017-08-01 02:00:00 21.4 17 Sudoeste 25 Sudoeste 0 -- -- 29
2017-08-01 01:00:00 21.3 13 Oeste 19 Oeste 0 -- -- 28
2017-08-01 00:00:00 22.3 10 Oeste 22 Sudoeste 0 -- -- 27
2017-07-31 23:00:00 23.1 13 Oeste 21 Oeste 0 -- -- 26
2017-07-31 22:00:00 26.2 9 Oeste 16 Sudoeste 0 -- -- 23
2017-07-31 21:00:00 30.2 10 Sudoeste 28 Sudoeste 0 -- -- 20
2017-07-31 20:00:00 32.8 17 Sudoeste 31 Sudoeste 0 -- -- 18
2017-07-31 19:00:00 33.8 22 Sudoeste 40 Sudoeste 0 -- -- 18
2017-07-31 18:00:00 34.4 25 Sudoeste 53 Sudoeste 0 -- -- 16
2017-07-31 17:00:00 34.8 28 Sudoeste 45 Sudoeste 0 -- -- 16
2017-07-31 16:00:00 34.3 18 Sur 64 Sudoeste 0 -- -- 17
2017-07-31 15:00:00 33.6 21 Sur 47 Sudoeste 0 -- -- 19
2017-07-31 14:00:00 33.5 28 Sur 51 Sur 0 -- -- 22
2017-07-31 13:00:00 32.1 27 Sur 44 Sur 0 -- -- 24
2017-07-31 12:00:00 28.7 6 Nordeste 14 Este 0 -- -- 36
2017-07-31 11:00:00 25.3 9 Nordeste 15 Nordeste 0 -- -- 48
2017-07-31 10:00:00 22.7 8 Nordeste 13 Nordeste 0 -- -- 54
2017-07-31 09:00:00 21 4 Este 7 Nordeste 0 -- -- 57
2017-07-31 08:00:00 16.5 2 Sur 4 Sur 0 -- -- 57
2017-07-31 07:00:00 16.1 2 Sur 13 Sudoeste 0 -- -- 54
2017-07-31 06:00:00 16.8 6 Sudoeste 14 Sudoeste 0 -- -- 49
2017-07-31 05:00:00 17.8 12 Sudoeste 15 Sudoeste 0 -- -- 45
2017-07-31 04:00:00 19.4 9 Oeste 17 Sudoeste 0 -- -- 41
2017-07-31 03:00:00 20.9 8 Sudoeste 15 Sudoeste 0 -- -- 38
2017-07-31 02:00:00 22.3 11 Sudoeste 16 Oeste 0 -- -- 36
2017-07-31 01:00:00 22.7 11 Sudoeste 17 Oeste 0 -- -- 34
2017-07-31 00:00:00 24.2 10 Sudoeste 14 Oeste 0 -- -- 32
2017-07-30 23:00:00 26 12 Oeste 17 Oeste 0 -- -- 29
2017-07-30 22:00:00 29.1 13 Oeste 25 Sudoeste 0 -- -- 24
2017-07-30 21:00:00 32.3 21 Sudoeste 44 Sudoeste 0 -- -- 20
2017-07-30 20:00:00 34.1 33 Sudoeste 47 Sur 0 -- -- 18
2017-07-30 19:00:00 35 31 Sur 49 Sudoeste 0 -- -- 17
2017-07-30 18:00:00 34.8 28 Sudoeste 53 Sudoeste 0 -- -- 19
2017-07-30 17:00:00 35 27 Sudoeste 52 Sudoeste 0 -- -- 20
2017-07-30 16:00:00 35.5 30 Sur 54 Sudoeste 0 -- -- 19
2017-07-30 15:00:00 35 32 Sur 58 Sudoeste 0 -- -- 21
2017-07-30 14:00:00 34.5 27 Sur 44 Sudoeste 0 -- -- 22
2017-07-30 13:00:00 33.7 24 Sudoeste 40 Sudoeste 0 -- -- 23
2017-07-30 12:00:00 30.2 5 Nordeste 11 Nordeste 0 -- -- 30
2017-07-30 11:00:00 27.9 5 Sudeste 14 Sudoeste 0 -- -- 33
2017-07-30 10:00:00 25.9 13 Oeste 21 Noroeste 0 -- -- 35
2017-07-30 09:00:00 22.7 7 Sudoeste 15 Oeste 0 -- -- 41
2017-07-30 08:00:00 18.4 8 Sudoeste 15 Sudoeste 0 -- -- 48
2017-07-30 07:00:00 18.3 9 Oeste 17 Sudoeste 0 -- -- 46
2017-07-30 06:00:00 19.1 15 Sudoeste 20 Sudoeste 0 -- -- 43
2017-07-30 05:00:00 19.9 13 Sudoeste 19 Sudoeste 0 -- -- 41
2017-07-30 04:00:00 20.5 15 Sudoeste 20 Sudoeste 0 -- -- 40
2017-07-30 03:00:00 21.4 11 Sudoeste 20 Sudoeste 0 -- -- 38
2017-07-30 02:00:00 21.9 10 Sudoeste 19 Oeste 0 -- -- 37
2017-07-30 01:00:00 23.1 13 Sudoeste 19 Oeste 0 -- -- 35
2017-07-30 00:00:00 24.1 10 Oeste 13 Oeste 0 -- -- 33
2017-07-29 23:00:00 25.2 8 Sudoeste 10 Sudoeste 0 -- -- 31
2017-07-29 22:00:00 27.6 4 Sudoeste 9 Oeste 0 -- -- 27
2017-07-29 21:00:00 31.6 8 Oeste 29 Oeste 0 -- -- 23
2017-07-29 20:00:00 33.5 23 Oeste 53 Oeste 0 -- -- 18
2017-07-29 19:00:00 34 15 Oeste 31 Oeste 0 -- -- 20
2017-07-29 18:00:00 36.1 14 Sudoeste 37 Sudoeste 0 -- -- 19
2017-07-29 17:00:00 35.8 13 Sudoeste 37 Sudoeste 0 -- -- 19
2017-07-29 16:00:00 35.3 22 Sudoeste 41 Sudoeste 0 -- -- 20
2017-07-29 15:00:00 34.7 28 Sudoeste 47 Sudoeste 0 -- -- 19
2017-07-29 14:00:00 34.1 30 Sudoeste 46 Sudoeste 0 -- -- 19
2017-07-29 13:00:00 33 21 Sudoeste 40 Sudoeste 0 -- -- 24
2017-07-29 12:00:00 31 7 Sudeste 21 Sudoeste 0 -- -- 29
2017-07-29 11:00:00 28.8 7 Sudoeste 14 Sudeste 0 -- -- 34
2017-07-29 10:00:00 25.8 4 Nordeste 9 Oeste 0 -- -- 46
2017-07-29 09:00:00 21.6 8 Sudoeste 14 Sudoeste 0 -- -- 58
2017-07-29 08:00:00 17.8 8 Sudoeste 14 Sudoeste 0 -- -- 68
2017-07-29 07:00:00 16.6 9 Sudoeste 13 Sudoeste 0 -- -- 70
2017-07-29 06:00:00 17.2 6 Sudoeste 12 Sudoeste 0 -- -- 67
2017-07-29 05:00:00 18.2 6 Sudoeste 9 Oeste 0 -- -- 64
2017-07-29 04:00:00 18.7 4 Sudoeste 7 Oeste 0 -- -- 60
2017-07-29 03:00:00 19.4 4 Sudoeste 10 Sudoeste 0 -- -- 55
2017-07-29 02:00:00 20.5 4 Sudoeste 8 Sudoeste 0 -- -- 54
2017-07-29 01:00:00 21.8 3 Sudoeste 6 Sudoeste 0 -- -- 49
2017-07-29 00:00:00 23.5 3 Sudoeste 5 Norte 0 -- -- 38
2017-07-28 23:00:00 27.5 2 Norte 20 Norte 0 -- -- 35
2017-07-28 22:00:00 29.2 9 Nordeste 17 Oeste 0 -- -- 33
2017-07-28 21:00:00 32.3 12 Oeste 22 Oeste 0 -- -- 21
2017-07-28 20:00:00 33.4 12 Oeste 30 Sur 0 -- -- 21
2017-07-28 19:00:00 35.7 18 Sudoeste 32 Sudoeste 0 -- -- 15
2017-07-28 18:00:00 36.3 18 Sudoeste 35 Sudoeste 0 -- -- 15
2017-07-28 17:00:00 36.2 23 Sudoeste 41 Sudoeste 0 -- -- 16
2017-07-28 16:00:00 35.6 24 Sudoeste 45 Sudoeste 0 -- -- 14
2017-07-28 15:00:00 34.6 13 Sur 31 Sudeste 0 -- -- 22
2017-07-28 14:00:00 32.5 5 Sudoeste 15 Sudoeste 0 -- -- 29
2017-07-28 13:00:00 30.3 8 Norte 21 Noroeste 0 -- -- 35
2017-07-28 12:00:00 28.7 12 Norte 25 Norte 0 -- -- 39
2017-07-28 11:00:00 27.3 14 Noroeste 24 Noroeste 0 -- -- 39
2017-07-28 10:00:00 25.7 4 Este 8 Nordeste 0 -- -- 39
2017-07-28 09:00:00 21.3 0 Calma 13 Sudoeste 0 -- -- 46
2017-07-28 08:00:00 17.5 11 Sudoeste 15 Sudoeste 0 -- -- 55
2017-07-28 07:00:00 16.3 12 Sudoeste 19 Sudoeste 0 -- -- 58
2017-07-28 06:00:00 16.9 12 Sudoeste 17 Sudoeste 0 -- -- 57
2017-07-28 05:00:00 17.8 13 Sudoeste 15 Sudoeste 0 -- -- 53
2017-07-28 04:00:00 18.7 12 Sudoeste 16 Sudoeste 0 -- -- 50
2017-07-28 03:00:00 19.3 8 Sudoeste 13 Sudoeste 0 -- -- 45
2017-07-28 02:00:00 19.7 2 Sudoeste 10 Sudoeste 0 -- -- 42
2017-07-28 01:00:00 21 3 Sur 15 Oeste 0 -- -- 38
2017-07-28 00:00:00 22.7 4 Sudoeste 13 Sudoeste 0 -- -- 35
2017-07-27 23:00:00 24.4 9 Sudoeste 14 Sudoeste 0 -- -- 31
2017-07-27 22:00:00 28.5 5 Sudoeste 15 Oeste 0 -- -- 26
2017-07-27 21:00:00 32.3 12 Oeste 23 Noroeste 0 -- -- 23
2017-07-27 20:00:00 33.9 15 Oeste 30 Oeste 0 -- -- 21
2017-07-27 19:00:00 34.7 17 Sudoeste 30 Sudoeste 0 -- -- 21
2017-07-27 18:00:00 34.6 17 Sudoeste 35 Sudoeste 0 -- -- 23
2017-07-27 17:00:00 34.7 19 Sudoeste 35 Sudoeste 0 -- -- 23
2017-07-27 16:00:00 35.2 18 Sur 38 Sudoeste 0 -- -- 23
2017-07-27 15:00:00 34 21 Sudoeste 40 Sudoeste 0 -- -- 23
2017-07-27 14:00:00 33.5 18 Sudoeste 35 Oeste 0 -- -- 23
2017-07-27 13:00:00 32.3 17 Sudoeste 33 Sudoeste 0 -- -- 24
2017-07-27 12:00:00 29.1 8 Nordeste 15 Nordeste 0 -- -- 36
2017-07-27 11:00:00 25.8 4 Nordeste 11 Nordeste 0 -- -- 45
2017-07-27 10:00:00 23.3 5 Este 10 Nordeste 0 -- -- 52
2017-07-27 09:00:00 19.8 0 Calma 10 Sudoeste 0 -- -- 61
2017-07-27 08:00:00 16 7 Sudoeste 11 Oeste 0 -- -- 72
2017-07-27 07:00:00 14.9 7 Sudoeste 18 Sudoeste 0 -- -- 75
2017-07-27 06:00:00 15 10 Sudoeste 13 Sudoeste 0 -- -- 74
2017-07-27 05:00:00 15.7 5 Oeste 10 Sudoeste 0 -- -- 72
2017-07-27 04:00:00 15.9 9 Sudoeste 13 Sudoeste 0 -- -- 71
2017-07-27 03:00:00 17.4 9 Sudoeste 13 Oeste 0 -- -- 66
2017-07-27 02:00:00 18.7 9 Sudoeste 12 Sudoeste 0 -- -- 61
2017-07-27 01:00:00 19.6 2 Sur 3 Nordeste 0 -- -- 56
2017-07-27 00:00:00 22.4 2 Nordeste 8 Nordeste 0 -- -- 50
2017-07-26 23:00:00 24.1 6 Nordeste 16 Nordeste 0 -- -- 46
2017-07-26 22:00:00 25.7 8 Norte 18 Norte 0 -- -- 40
2017-07-26 21:00:00 28.2 12 Nordeste 22 Sudoeste 0 -- -- 36
2017-07-26 20:00:00 30.8 11 Oeste 27 Oeste 0 -- -- 30
2017-07-26 19:00:00 31.5 12 Oeste 32 Sudoeste 0 -- -- 29
2017-07-26 18:00:00 31.2 12 Oeste 21 Nordeste 0 -- -- 29
2017-07-26 17:00:00 30.7 10 Oeste 24 Noroeste 0 -- -- 30
2017-07-26 16:00:00 30.1 6 Sudoeste 26 Sudoeste 0 -- -- 30
2017-07-26 15:00:00 28.6 9 Oeste 24 Noroeste 0 -- -- 32
2017-07-26 14:00:00 27.7 9 Noroeste 28 Noroeste 0 -- -- 33
2017-07-26 13:00:00 26.2 9 Noroeste 21 Norte 0 -- -- 35
2017-07-26 12:00:00 24.5 8 Noroeste 19 Noroeste 0 -- -- 37
2017-07-26 11:00:00 22.4 8 Norte 14 Norte 0 -- -- 41
2017-07-26 10:00:00 19.1 2 Sudeste 7 Nordeste 0 -- -- 49
2017-07-26 09:00:00 15.6 2 Sudoeste 10 Sudoeste 0 -- -- 61
2017-07-26 08:00:00 11.8 9 Sudoeste 14 Sudoeste 0 -- -- 74
2017-07-26 07:00:00 10.3 10 Oeste 13 Sudoeste 0 -- -- 79
2017-07-26 06:00:00 10.2 10 Sudoeste 14 Sudoeste 0 -- -- 79
2017-07-26 05:00:00 10.3 9 Sudoeste 12 Sudoeste 0 -- -- 79
2017-07-26 04:00:00 10.7 10 Sudoeste 14 Oeste 0 -- -- 78
2017-07-26 03:00:00 11.9 5 Sudoeste 11 Sudoeste 0 -- -- 71
2017-07-26 02:00:00 13.1 5 Sudoeste 9 Oeste 0 -- -- 67
2017-07-26 01:00:00 15.2 3 Norte 13 Nordeste 0 -- -- 62
2017-07-26 00:00:00 16.4 4 Nordeste 14 Nordeste 0 -- -- 59
2017-07-25 23:00:00 17.6 7 Norte 19 Norte 0 -- -- 54
2017-07-25 22:00:00 19.1 8 Nordeste 25 Norte 0 -- -- 49
2017-07-25 21:00:00 20.8 14 Nordeste 31 Norte 0 -- -- 44
2017-07-25 20:00:00 22.6 17 Norte 28 Norte 0 -- -- 39
2017-07-25 19:00:00 24 12 Norte 27 Nordeste 0 -- -- 36
2017-07-25 18:00:00 25.3 12 Norte 33 Norte 0 -- -- 33
2017-07-25 17:00:00 25.1 16 Norte 29 Norte 0 -- -- 33
2017-07-25 16:00:00 24.9 13 Norte 28 Nordeste 0 -- -- 31
2017-07-25 15:00:00 23.5 12 Norte 28 Nordeste 0 -- -- 35
2017-07-25 14:00:00 22.6 15 Norte 31 Nordeste 0 -- -- 37
2017-07-25 13:00:00 21.1 15 Nordeste 29 Norte 0 -- -- 41
2017-07-25 12:00:00 19.9 13 Norte 26 Norte 0 -- -- 46
2017-07-25 11:00:00 18.6 13 Norte 28 Norte 0 -- -- 52
2017-07-25 10:00:00 16.8 16 Norte 28 Norte 0 -- -- 58
2017-07-25 09:00:00 15.8 10 Norte 21 Noroeste 0 -- -- 63
2017-07-25 08:00:00 12.4 3 Sudoeste 9 Sur 0 -- -- 77
2017-07-25 07:00:00 11 3 Sur 9 Sudoeste 0 -- -- 81
2017-07-25 06:00:00 11.5 0 Calma 6 Sur 0 -- -- 80
2017-07-25 05:00:00 13.2 3 Norte 9 Norte 0 -- -- 76
2017-07-25 04:00:00 14.1 7 Norte 13 Nordeste 0 -- -- 74
2017-07-25 03:00:00 15 7 Nordeste 19 Norte 0 -- -- 72
2017-07-25 02:00:00 15.7 8 Nordeste 14 Nordeste 0 -- -- 71
2017-07-25 01:00:00 16.3 8 Nordeste 20 Nordeste 0 -- -- 69
2017-07-25 00:00:00 17.3 7 Nordeste 20 Nordeste 0 -- -- 63
2017-07-24 23:00:00 18.7 13 Norte 25 Nordeste 0 -- -- 58
2017-07-24 22:00:00 20.2 9 Norte 27 Norte 0 -- -- 52
2017-07-24 21:00:00 22.7 14 Norte 33 Norte 0 -- -- 46
2017-07-24 20:00:00 24.6 19 Norte 32 Norte 0 -- -- 41
2017-07-24 19:00:00 26.2 19 Norte 33 Norte 0 -- -- 36
2017-07-24 18:00:00 28.2 4 Norte 17 Nordeste 0 -- -- 29
2017-07-24 17:00:00 28.6 6 Oeste 40 Sudoeste 0 -- -- 30
2017-07-24 16:00:00 28.3 5 Oeste 19 Oeste 0 -- -- 31
2017-07-24 15:00:00 26.7 6 Noroeste 19 Norte 0 -- -- 34
2017-07-24 14:00:00 27 5 Norte 19 Noroeste 0 -- -- 35
2017-07-24 13:00:00 24.7 7 Noroeste 20 Noroeste 0 -- -- 41
2017-07-24 12:00:00 23 7 Noroeste 21 Norte 0 -- -- 48
2017-07-24 11:00:00 21.8 10 Norte 22 Norte 0 -- -- 53
2017-07-24 10:00:00 20.8 6 Nordeste 11 Este 0 -- -- 56
2017-07-24 09:00:00 18.3 2 Sudeste 10 Oeste 0 -- -- 63
2017-07-24 08:00:00 14.8 4 Sudoeste 7 Sudoeste 0 -- -- 74
2017-07-24 07:00:00 13.2 2 Sur 6 Sudoeste 0 -- -- 76
2017-07-24 06:00:00 13.7 2 Sudoeste 3 Sudoeste 0 -- -- 72
2017-07-24 05:00:00 14.5 0 Calma 4 Sur 0 -- -- 71
2017-07-24 04:00:00 15.4 0 Calma 3 Este 0 -- -- 67
2017-07-24 03:00:00 17.3 0 Calma 8 Nordeste 0 -- -- 62
2017-07-24 02:00:00 18.7 3 Nordeste 9 Norte 0 -- -- 59
2017-07-24 01:00:00 19.7 2 Noroeste 22 Norte 0 -- -- 55
2017-07-24 00:00:00 20.7 8 Noroeste 19 Noroeste 0 -- -- 52
2017-07-23 23:00:00 23.2 9 Norte 21 Nordeste 0 -- -- 45
2017-07-23 22:00:00 25.2 12 Nordeste 24 Nordeste 0 -- -- 45
2017-07-23 21:00:00 27.4 13 Nordeste 26 Noroeste 0 -- -- 42
2017-07-23 20:00:00 30 12 Noroeste 30 Oeste 0 -- -- 25
2017-07-23 19:00:00 31.6 18 Oeste 33 Oeste 0 -- -- 25
2017-07-23 18:00:00 32.7 16 Oeste 40 Sudoeste 0 -- -- 24
2017-07-23 17:00:00 32.6 11 Oeste 34 Sudoeste 0 -- -- 25
2017-07-23 16:00:00 32.6 16 Sur 36 Sur 0 -- -- 19
2017-07-23 15:00:00 29.9 9 Norte 19 Norte 0 -- -- 33
2017-07-23 14:00:00 27.8 7 Este 18 Nordeste 0 -- -- 40
2017-07-23 13:00:00 26 10 Nordeste 17 Nordeste 0 -- -- 47
2017-07-23 12:00:00 24.3 5 Noroeste 16 Nordeste 0 -- -- 53
2017-07-23 11:00:00 21.9 6 Norte 14 Nordeste 0 -- -- 57
2017-07-23 10:00:00 20 7 Nordeste 15 Nordeste 0 -- -- 62
2017-07-23 09:00:00 18.1 6 Este 9 Nordeste 0 -- -- 64
2017-07-23 08:00:00 14.1 2 Sur 5 Oeste 0 -- -- 68
2017-07-23 07:00:00 13.4 4 Sudoeste 8 Sudoeste 0 -- -- 70
2017-07-23 06:00:00 13.7 2 Sur 6 Sur 0 -- -- 62
2017-07-23 05:00:00 14.4 3 Sur 5 Sur 0 -- -- 56
2017-07-23 04:00:00 15.2 3 Sudoeste 13 Sudoeste 0 -- -- 52
2017-07-23 03:00:00 16.5 9 Sudoeste 15 Sudoeste 0 -- -- 48
2017-07-23 02:00:00 18 10 Sudoeste 15 Oeste 0 -- -- 42
2017-07-23 01:00:00 18.9 5 Sudoeste 11 Oeste 0 -- -- 39
2017-07-23 00:00:00 21 4 Sudoeste 15 Oeste 0 -- -- 35
2017-07-22 23:00:00 22.9 12 Oeste 21 Oeste 0 -- -- 31
2017-07-22 22:00:00 24.4 9 Sudoeste 17 Sudoeste 0 -- -- 27
2017-07-22 21:00:00 29.4 13 Sudoeste 30 Sudoeste 0 -- -- 20
2017-07-22 20:00:00 30.7 17 Sudoeste 41 Sudoeste 0 -- -- 20
2017-07-22 19:00:00 31.1 26 Sudoeste 53 Sudoeste 0 -- -- 20
2017-07-22 18:00:00 31.5 20 Sudoeste 49 Sudoeste 0 -- -- 20
2017-07-22 17:00:00 31.9 22 Sur 40 Sudoeste 0 -- -- 21
2017-07-22 16:00:00 31.5 15 Sur 38 Sudoeste 0 -- -- 21
2017-07-22 15:00:00 30.1 22 Sur 42 Sur 0 -- -- 22
2017-07-22 14:00:00 29.9 21 Sur 44 Sudoeste 0 -- -- 27
2017-07-22 13:00:00 29.2 18 Sur 40 Sur 0 -- -- 25
2017-07-22 12:00:00 26.6 8 Oeste 15 Oeste 0 -- -- 39
2017-07-22 11:00:00 24.4 4 Norte 13 Nordeste 0 -- -- 48
2017-07-22 10:00:00 22.5 3 Norte 10 Sur 0 -- -- 58
2017-07-22 09:00:00 18.7 6 Oeste 14 Oeste 0 -- -- 67
2017-07-22 08:00:00 15.6 10 Sudoeste 14 Sudoeste 0 -- -- 72
2017-07-22 07:00:00 14.7 11 Sudoeste 15 Sudoeste 0 -- -- 72
2017-07-22 06:00:00 15.1 11 Sudoeste 15 Sudoeste 0 -- -- 67
2017-07-22 05:00:00 15.3 11 Sudoeste 14 Sudoeste 0 -- -- 66
2017-07-22 04:00:00 16.2 8 Sudoeste 12 Sudoeste 0 -- -- 57
2017-07-22 03:00:00 16.6 3 Sudoeste 9 Sudoeste 0 -- -- 53
2017-07-22 02:00:00 17.8 8 Sudoeste 14 Sudoeste 0 -- -- 50
2017-07-22 01:00:00 19.1 10 Sudoeste 13 Sudoeste 0 -- -- 42
2017-07-22 00:00:00 20.2 5 Sur 16 Sudoeste 0 -- -- 38
2017-07-21 23:00:00 21.7 12 Oeste 17 Sudoeste 0 -- -- 36
2017-07-21 22:00:00 23.6 10 Sudoeste 16 Sudoeste 0 -- -- 34
2017-07-21 21:00:00 28.5 14 Sudoeste 28 Sudoeste 0 -- -- 21
2017-07-21 20:00:00 30.1 16 Sudoeste 33 Sudoeste 0 -- -- 20
2017-07-21 19:00:00 30.5 21 Sudoeste 39 Sudoeste 0 -- -- 20
2017-07-21 18:00:00 30.8 24 Sudoeste 44 Sudoeste 0 -- -- 20
2017-07-21 17:00:00 30.8 25 Sudoeste 39 Sudoeste 0 -- -- 20
2017-07-21 16:00:00 30.6 29 Sudoeste 49 Sudoeste 0 -- -- 20
2017-07-21 15:00:00 30.2 27 Sudoeste 42 Sudoeste 0 -- -- 23
2017-07-21 14:00:00 29.1 25 Sur 45 Sudoeste 0 -- -- 30
2017-07-21 13:00:00 28.2 20 Sudoeste 36 Sur 0 -- -- 36
2017-07-21 12:00:00 24.8 7 Este 14 Este 0 -- -- 50
2017-07-21 11:00:00 22.1 5 Norte 14 Este 0 -- -- 58
2017-07-21 10:00:00 20.1 8 Nordeste 14 Nordeste 0 -- -- 62
2017-07-21 09:00:00 18.4 2 Nordeste 5 Nordeste 0 -- -- 66
2017-07-21 08:00:00 15.5 0 Calma 6 Sudoeste 0 -- -- 75
2017-07-21 07:00:00 14.9 3 Sudoeste 5 Sudoeste 0 -- -- 75
2017-07-21 06:00:00 16.2 2 Nordeste 9 Nordeste 0 -- -- 72
2017-07-21 05:00:00 16.9 4 Norte 10 Norte 0 -- -- 70
2017-07-21 04:00:00 17.7 7 Norte 15 Nordeste 0 -- -- 68
2017-07-21 03:00:00 18.6 8 Nordeste 18 Nordeste 0 -- -- 65
2017-07-21 02:00:00 19.7 6 Nordeste 21 Nordeste 0 -- -- 61
2017-07-21 01:00:00 20.8 10 Nordeste 21 Nordeste 0 -- -- 58
2017-07-21 00:00:00 21.8 11 Nordeste 23 Nordeste 0 -- -- 54
2017-07-20 23:00:00 22.6 15 Nordeste 28 Nordeste 0 -- -- 52
2017-07-20 22:00:00 23.9 16 Nordeste 28 Nordeste 0 -- -- 48
2017-07-20 21:00:00 25.9 17 Nordeste 36 Nordeste 0 -- -- 41
2017-07-20 20:00:00 27.8 17 Nordeste 27 Nordeste 0 -- -- 38
2017-07-20 19:00:00 28.9 14 Nordeste 30 Este 0 -- -- 36
2017-07-20 18:00:00 29.6 12 Nordeste 33 Nordeste 0 -- -- 35
2017-07-20 17:00:00 29.6 13 Nordeste 26 Nordeste 0 -- -- 34
2017-07-20 16:00:00 29.1 8 Nordeste 24 Nordeste 0 -- -- 35
2017-07-20 15:00:00 28.5 12 Nordeste 24 Nordeste 0 -- -- 37
2017-07-20 14:00:00 27.1 10 Nordeste 23 Nordeste 0 -- -- 41
2017-07-20 13:00:00 25.4 8 Nordeste 22 Nordeste 0 -- -- 47
2017-07-20 12:00:00 24 9 Nordeste 18 Nordeste 0 -- -- 51
2017-07-20 11:00:00 22.6 6 Nordeste 15 Nordeste 0 -- -- 56
2017-07-20 10:00:00 21.5 5 Este 11 Este 0 -- -- 58
2017-07-20 09:00:00 18.5 3 Sur 6 Sur 0 -- -- 67
2017-07-20 08:00:00 15.2 3 Sur 6 Sudoeste 0 -- -- 72
2017-07-20 07:00:00 13.6 4 Sur 9 Sudoeste 0 -- -- 72
2017-07-20 06:00:00 14.6 7 Sudoeste 10 Sudoeste 0 -- -- 68
2017-07-20 05:00:00 15 4 Sudoeste 10 Sudoeste 0 -- -- 65
2017-07-20 04:00:00 16.1 7 Sudoeste 9 Sudoeste 0 -- -- 61
2017-07-20 03:00:00 17.1 3 Sudoeste 12 Sudoeste 0 -- -- 56
2017-07-20 02:00:00 18.1 4 Sudoeste 13 Oeste 0 -- -- 52
2017-07-20 01:00:00 19.2 10 Sudoeste 14 Oeste 0 -- -- 48
2017-07-20 00:00:00 21 10 Sudoeste 15 Sudoeste 0 -- -- 43
2017-07-19 23:00:00 22.7 11 Sudoeste 17 Sudoeste 0 -- -- 38
2017-07-19 22:00:00 24.5 8 Sudoeste 26 Sudoeste 0 -- -- 34
2017-07-19 21:00:00 28.4 23 Sudoeste 39 Sudoeste 0 -- -- 28
2017-07-19 20:00:00 29.1 25 Sudoeste 40 Sudoeste 0 -- -- 23
2017-07-19 19:00:00 30.9 29 Sudoeste 48 Sudoeste 0 -- -- 24
2017-07-19 18:00:00 31.8 28 Sudoeste 41 Sudoeste 0 -- -- 23
2017-07-19 17:00:00 31.3 27 Sudoeste 45 Sudoeste 0 -- -- 24
2017-07-19 16:00:00 31.7 20 Sudoeste 46 Sur 0 -- -- 25
2017-07-19 15:00:00 31.4 23 Sur 39 Sudoeste 0 -- -- 25
2017-07-19 14:00:00 30.4 19 Sur 42 Sur 0 -- -- 27
2017-07-19 13:00:00 29.7 27 Sur 43 Sudoeste 0 -- -- 31
2017-07-19 12:00:00 27.3 22 Sur 37 Sudoeste 0 -- -- 38
2017-07-19 11:00:00 26.9 23 Sur 41 Sur 0 -- -- 37
2017-07-19 10:00:00 25.7 25 Sur 38 Sur 0 -- -- 41
2017-07-19 09:00:00 23.8 21 Sur 33 Sur 0 -- -- 48
2017-07-19 08:00:00 22.1 19 Sur 33 Sur 0 -- -- 52
2017-07-19 07:00:00 22 18 Sur 32 Sur 0 -- -- 52
2017-07-19 06:00:00 22.6 24 Sur 37 Sur 0 -- -- 51
2017-07-19 05:00:00 22.9 25 Sur 39 Sur 0 -- -- 49
2017-07-19 04:00:00 23.2 19 Sur 27 Sur 0 -- -- 45
2017-07-19 03:00:00 20.1 3 Sudoeste 13 Norte 0 -- -- 65
2017-07-19 02:00:00 20 2 Sudoeste 9 Sudoeste 0 -- -- 66
2017-07-19 01:00:00 21.5 4 Oeste 12 Oeste 0 -- -- 61
2017-07-19 00:00:00 22.6 3 Noroeste 27 Sudeste 0 -- -- 51